Time;durP1;ratioP1;P1;durP2;ratioP2;P2;SDS_P1;SDS_P2;PMS_P1;PMS_P2;Temp;Humidity;BMP_temperature;BMP_pressure;BME280_temperature;BME280_humidity;BME280_pressure;Samples;Min_cycle;Max_cycle;Signal;HPM_P1;HPM_P2
2022/11/16 00:01:58;;;;;;;23.45;12.93;;;27.40;99.90;;;;;;5056575;28;20029;-68
2022/11/16 00:04:25;;;;;;;19.58;12.50;;;27.40;99.90;;;;;;5056702;28;20064;-68
2022/11/16 00:06:52;;;;;;;22.52;13.13;;;27.40;99.90;;;;;;5056823;28;20194;-68
2022/11/16 00:11:50;;;;;;;24.08;14.25;;;27.30;99.90;;;;;;5056634;28;20484;-67
2022/11/16 00:14:17;;;;;;;24.00;12.88;;;27.30;99.90;;;;;;5056409;28;20094;-66
2022/11/16 00:16:44;;;;;;;22.67;11.60;;;27.40;99.90;;;;;;5056433;28;20021;-67
2022/11/16 00:19:11;;;;;;;26.30;13.63;;;27.30;99.90;;;;;;5056471;28;20029;-67
2022/11/16 00:21:39;;;;;;;25.42;13.90;;;27.40;99.90;;;;;;5056691;28;20021;-67
2022/11/16 00:24:06;;;;;;;40.58;16.55;;;27.40;99.90;;;;;;5056299;28;20023;-67
2022/11/16 00:26:32;;;;;;;27.48;15.52;;;27.40;99.90;;;;;;5056369;28;20035;-67
2022/11/16 00:28:59;;;;;;;29.38;15.30;;;27.50;99.90;;;;;;5056348;28;20103;-66
2022/11/16 00:31:25;;;;;;;33.00;17.10;;;27.40;99.90;;;;;;5056025;28;20029;-66
2022/11/16 00:33:52;;;;;;;27.95;14.95;;;27.40;99.90;;;;;;5056374;28;20060;-67
2022/11/16 00:36:19;;;;;;;26.42;16.00;;;27.40;99.90;;;;;;5056121;28;20076;-67
2022/11/16 00:38:45;;;;;;;26.70;17.25;;;27.50;99.90;;;;;;5055802;28;20025;-64
2022/11/16 00:41:12;;;;;;;28.90;16.95;;;27.50;99.90;;;;;;5056059;28;20025;-66
2022/11/16 00:43:39;;;;;;;41.88;28.55;;;27.50;99.90;;;;;;5056131;28;20048;-67
2022/11/16 00:46:05;;;;;;;29.23;16.30;;;27.50;99.90;;;;;;5055796;28;20385;-66
2022/11/16 00:48:32;;;;;;;28.85;15.82;;;27.50;99.90;;;;;;5055749;28;20056;-67
2022/11/16 00:50:58;;;;;;;30.60;14.40;;;27.70;99.90;;;;;;5055586;28;20025;-66
2022/11/16 00:53:25;;;;;;;23.55;15.73;;;27.60;99.90;;;;;;5056245;28;20489;-66
2022/11/16 00:55:51;;;;;;;57.70;41.60;;;27.60;99.90;;;;;;5055650;28;20040;-67
2022/11/16 00:58:18;;;;;;;24.33;15.07;;;27.60;99.90;;;;;;5055802;28;20042;-67
2022/11/16 01:00:44;;;;;;;27.35;16.58;;;27.60;99.90;;;;;;5055776;28;20486;-66
2022/11/16 01:03:11;;;;;;;27.08;16.02;;;27.60;99.90;;;;;;5055582;28;20036;-66
2022/11/16 01:05:38;;;;;;;32.45;17.98;;;27.60;99.90;;;;;;5055612;28;20074;-66
2022/11/16 01:08:05;;;;;;;24.30;16.98;;;27.60;99.90;;;;;;5055612;28;20013;-66
2022/11/16 01:10:32;;;;;;;26.33;17.10;;;27.60;99.90;;;;;;5055461;28;20043;-66
2022/11/16 01:12:59;;;;;;;24.23;17.25;;;27.60;99.90;;;;;;5055402;28;20029;-67
2022/11/16 01:15:27;;;;;;;25.20;18.70;;;27.70;99.90;;;;;;5055352;28;20060;-66
2022/11/16 01:17:55;;;;;;;32.05;18.80;;;27.70;99.90;;;;;;5055303;28;20079;-67
2022/11/16 01:20:26;;;;;;;24.05;16.60;;;27.80;99.90;;;;;;5055381;28;20025;-68
2022/11/16 01:22:53;;;;;;;36.55;17.02;;;27.80;99.90;;;;;;5055672;28;20347;-69
2022/11/16 01:25:20;;;;;;;29.60;17.52;;;27.90;99.90;;;;;;5055209;28;20496;-68
2022/11/16 01:27:47;;;;;;;29.48;18.50;;;27.90;99.90;;;;;;5055485;28;20029;-70
2022/11/16 01:30:14;;;;;;;35.47;16.58;;;27.90;99.90;;;;;;5055333;28;20029;-69
2022/11/16 01:32:41;;;;;;;25.45;15.27;;;27.90;99.90;;;;;;5055007;28;20056;-69
2022/11/16 01:35:09;;;;;;;25.10;14.77;;;28.00;99.90;;;;;;5054978;28;20033;-69
2022/11/16 01:37:36;;;;;;;45.47;30.90;;;28.00;99.90;;;;;;5055276;28;20450;-70
2022/11/16 01:40:02;;;;;;;51.67;33.30;;;28.10;99.90;;;;;;5054874;28;20029;-67
2022/11/16 01:42:30;;;;;;;45.05;27.08;;;28.10;99.90;;;;;;5054905;28;20389;-67
2022/11/16 01:44:59;;;;;;;162.68;119.25;;;28.20;99.90;;;;;;5048319;28;20030;-68
2022/11/16 01:47:26;;;;;;;51.47;24.55;;;28.20;99.90;;;;;;5041976;28;20394;-69
2022/11/16 01:50:05;;;;;;;53.40;35.40;;;28.20;99.90;;;;;;5034753;28;20032;-68
2022/11/16 01:52:35;;;;;;;43.90;25.80;;;28.30;99.90;;;;;;5034692;28;20372;-68
2022/11/16 01:55:02;;;;;;;42.00;24.85;;;28.40;99.90;;;;;;5034652;28;20025;-68
2022/11/16 01:57:34;;;;;;;48.95;24.42;;;28.40;99.90;;;;;;5041923;28;20021;-68
2022/11/16 02:00:05;;;;;;;42.13;27.77;;;28.50;99.90;;;;;;5044158;28;20021;-65
2022/11/16 02:02:32;;;;;;;46.80;30.70;;;28.50;99.90;;;;;;5044298;28;20386;-64
2022/11/16 02:04:59;;;;;;;53.38;26.85;;;28.50;99.90;;;;;;5048816;28;20033;-64
2022/11/16 02:07:28;;;;;;;132.60;95.30;;;28.60;99.90;;;;;;5054441;28;20029;-65
2022/11/16 02:10:03;;;;;;;87.50;61.17;;;28.60;99.90;;;;;;5054550;28;20040;-64
2022/11/16 02:12:32;;;;;;;27.27;17.13;;;28.70;99.90;;;;;;5054151;28;20079;-64
2022/11/16 02:15:21;;;;;;;29.52;19.30;;;28.80;99.90;;;;;;5054423;28;20029;-63
2022/11/16 02:18:13;;;;;;;159.48;115.70;;;28.80;99.90;;;;;;5049725;28;20401;-64
2022/11/16 02:20:51;;;;;;;21.98;10.85;;;28.80;99.90;;;;;;5036041;28;20072;-67
2022/11/16 02:23:29;;;;;;;18.67;9.75;;;28.90;99.90;;;;;;5054193;28;20028;-66
2022/11/16 02:26:01;;;;;;;18.00;11.27;;;28.90;99.90;;;;;;5054235;28;20458;-66
2022/11/16 02:28:31;;;;;;;24.83;11.70;;;28.90;99.90;;;;;;5054062;28;20096;-66
2022/11/16 02:31:02;;;;;;;16.35;11.05;;;28.90;99.90;;;;;;5054190;28;20021;-66
2022/11/16 02:33:36;;;;;;;19.00;8.85;;;28.90;99.90;;;;;;5053982;28;20021;-64
2022/11/16 02:36:06;;;;;;;22.35;9.57;;;29.00;99.90;;;;;;5053752;28;20045;-66
2022/11/16 02:38:38;;;;;;;19.30;11.40;;;29.00;99.90;;;;;;5053971;28;20024;-66
2022/11/16 02:41:07;;;;;;;;;;;29.10;99.90;;;;;;5054194;28;20031;-66
2022/11/16 02:43:42;;;;;;;15.63;9.10;;;29.10;99.90;;;;;;5053973;28;20296;-67
2022/11/16 02:46:16;;;;;;;11.88;8.38;;;29.10;99.90;;;;;;5053837;28;20017;-66
2022/11/16 02:48:49;;;;;;;22.45;13.07;;;29.20;99.90;;;;;;5053993;28;20158;-67
2022/11/16 02:51:17;;;;;;;29.23;14.00;;;29.20;99.90;;;;;;5053708;28;20021;-66
2022/11/16 02:54:00;;;;;;;19.17;8.48;;;29.20;99.90;;;;;;5053391;28;20044;-66
2022/11/16 02:56:27;;;;;;;21.23;13.00;;;29.30;99.90;;;;;;5053667;28;20025;-67
2022/11/16 02:58:55;;;;;;;12.18;7.65;;;29.30;99.90;;;;;;5053454;28;20013;-66
2022/11/16 03:01:37;;;;;;;13.93;8.77;;;29.40;99.90;;;;;;5053674;28;20076;-66
2022/11/16 03:04:13;;;;;;;12.57;7.53;;;29.50;99.90;;;;;;5053460;28;20444;-66
2022/11/16 03:06:42;;;;;;;19.00;11.45;;;29.60;99.90;;;;;;5053501;28;20032;-67
2022/11/16 03:09:17;;;;;;;17.85;8.68;;;29.70;99.90;;;;;;5052374;28;20114;-66
2022/11/16 03:14:26;;;;;;;12.23;7.05;;;29.70;99.90;;;;;;5053390;28;20025;-67
2022/11/16 03:16:56;;;;;;;23.20;13.68;;;29.80;99.90;;;;;;5053316;28;20100;-67
2022/11/16 03:19:32;;;;;;;12.10;7.78;;;29.90;99.90;;;;;;5053406;28;20060;-67
2022/11/16 03:22:14;;;;;;;16.83;8.98;;;29.90;99.90;;;;;;5053008;28;20116;-67
2022/11/16 03:24:41;;;;;;;24.67;9.65;;;29.80;99.90;;;;;;5053153;28;20025;-69
2022/11/16 03:27:11;;;;;;;32.92;16.25;;;29.80;99.90;;;;;;5053077;28;20052;-69
2022/11/16 03:29:54;;;;;;;25.80;12.75;;;29.90;99.90;;;;;;5053087;28;20025;-66
2022/11/16 03:32:41;;;;;;;13.45;6.50;;;30.00;99.90;;;;;;5053103;28;20021;-67
2022/11/16 03:35:10;;;;;;;12.77;6.40;;;30.00;99.90;;;;;;5003671;28;20041;-64
2022/11/16 03:37:38;;;;;;;10.85;6.65;;;30.20;99.90;;;;;;5053062;28;20041;-67
2022/11/16 03:40:06;;;;;;;13.18;7.05;;;30.20;99.90;;;;;;5053258;28;20112;-67
2022/11/16 03:42:33;;;;;;;15.00;9.70;;;30.20;99.90;;;;;;5053177;28;20029;-67
2022/11/16 03:45:00;;;;;;;16.92;9.25;;;30.20;99.90;;;;;;5052938;28;20100;-67
2022/11/16 03:47:27;;;;;;;10.85;7.05;;;30.30;99.90;;;;;;5052926;28;20029;-68
2022/11/16 03:49:53;;;;;;;18.90;9.48;;;30.30;99.90;;;;;;5053091;28;20017;-67
2022/11/16 03:52:20;;;;;;;14.75;9.40;;;30.30;99.90;;;;;;5052929;28;20025;-68
2022/11/16 03:54:47;;;;;;;19.52;8.10;;;30.40;99.90;;;;;;5052742;28;20021;-71
2022/11/16 03:57:17;;;;;;;18.63;9.35;;;30.40;99.90;;;;;;5053066;28;20021;-70
2022/11/16 03:59:44;;;;;;;15.50;9.77;;;30.50;99.90;;;;;;5052171;28;20077;-73
2022/11/16 04:02:11;;;;;;;16.42;8.15;;;30.60;99.90;;;;;;5040201;28;20264;-68
2022/11/16 04:24:53;;;;;;;11.63;5.55;;;31.20;99.90;;;;;;5037632;28;20029;-68
2022/11/16 04:29:56;;;;;;;12.18;6.20;;;31.40;99.90;;;;;;5036803;28;20087;-68
2022/11/16 04:39:50;;;;;;;30.40;18.33;;;31.70;99.90;;;;;;5056184;28;20021;-67
2022/11/16 04:42:21;;;;;;;25.13;11.80;;;31.70;99.90;;;;;;5056343;28;20013;-67
2022/11/16 04:47:16;;;;;;;21.13;5.53;;;31.70;99.90;;;;;;5056517;28;20032;-67
2022/11/16 04:49:43;;;;;;;61.35;47.17;;;31.70;99.90;;;;;;5056569;28;20124;-67
2022/11/16 04:52:09;;;;;;;33.03;19.42;;;31.70;99.90;;;;;;5056067;28;20025;-65
2022/11/16 04:54:36;;;;;;;30.45;13.20;;;31.60;99.90;;;;;;5054035;28;20021;-67
2022/11/16 04:57:03;;;;;;;22.58;12.43;;;31.70;99.90;;;;;;5045012;28;20088;-69
2022/11/16 04:59:29;;;;;;;14.00;8.70;;;31.80;99.90;;;;;;5035985;28;20021;-67
2022/11/16 05:04:25;;;;;;;11.73;7.40;;;31.70;99.90;;;;;;5045602;28;20151;-68
2022/11/16 05:06:51;;;;;;;28.85;9.93;;;31.70;99.90;;;;;;5044956;28;20017;-68
2022/11/16 05:09:18;;;;;;;108.85;69.30;;;31.70;99.90;;;;;;5043515;28;20440;-68
2022/11/16 05:11:44;;;;;;;60.40;35.05;;;31.80;99.90;;;;;;5045469;28;20025;-68
2022/11/16 05:14:11;;;;;;;51.92;35.90;;;31.80;99.90;;;;;;5044203;28;20060;-68
2022/11/16 05:16:37;;;;;;;117.15;93.60;;;31.70;99.90;;;;;;5043493;28;20021;-68
2022/11/16 05:21:33;;;;;;;24.42;12.88;;;31.80;99.90;;;;;;5036539;28;20049;-66
2022/11/16 05:26:28;;;;;;;38.40;15.70;;;31.90;99.90;;;;;;5051398;28;20449;-68
2022/11/16 05:28:55;;;;;;;29.15;12.85;;;31.90;99.90;;;;;;5050845;28;20025;-67
2022/11/16 05:31:21;;;;;;;22.05;7.70;;;31.90;99.90;;;;;;5049822;28;20032;-64
2022/11/16 05:33:48;;;;;;;18.92;6.63;;;31.90;99.90;;;;;;5051017;28;20474;-65
2022/11/16 05:36:14;;;;;;;20.05;8.88;;;31.90;99.90;;;;;;5050785;28;20060;-65
2022/11/16 05:38:41;;;;;;;17.50;6.20;;;31.90;99.90;;;;;;5050885;28;20096;-62
2022/11/16 05:41:07;;;;;;;44.75;6.30;;;31.90;99.90;;;;;;5033736;28;20021;-63
2022/11/16 05:43:34;;;;;;;21.50;6.78;;;31.90;99.90;;;;;;5051462;28;20064;-61
2022/11/16 05:46:00;;;;;;;19.13;5.97;;;31.90;99.90;;;;;;5048945;28;20026;-62
2022/11/16 05:48:27;;;;;;;15.90;5.70;;;32.00;99.90;;;;;;5047324;28;20032;-62
2022/11/16 05:50:58;;;;;;;13.30;5.25;;;32.00;99.90;;;;;;5040647;28;20024;-63
2022/11/16 05:53:24;;;;;;;273.75;19.63;;;32.00;99.90;;;;;;5042712;28;20104;-58
2022/11/16 05:55:51;;;;;;;16.60;5.00;;;32.10;99.90;;;;;;5046040;28;20100;-59
2022/11/16 05:58:17;;;;;;;31.02;6.30;;;32.10;99.90;;;;;;5050408;28;20039;-60
2022/11/16 06:00:46;;;;;;;41.45;28.30;;;32.10;99.90;;;;;;5038505;28;20108;-61
2022/11/16 06:03:13;;;;;;;10.65;3.95;;;32.10;99.90;;;;;;5043828;28;20390;-62
2022/11/16 06:05:39;;;;;;;108.22;78.57;;;32.00;99.90;;;;;;5047545;28;20452;-61
2022/11/16 06:08:06;;;;;;;45.50;28.45;;;32.00;99.90;;;;;;5045123;28;20024;-67
2022/11/16 06:10:32;;;;;;;23.73;7.82;;;32.00;99.90;;;;;;5043157;28;20036;-62
2022/11/16 06:12:59;;;;;;;11.52;5.82;;;32.00;99.90;;;;;;5044219;28;20460;-62
2022/11/16 06:15:25;;;;;;;14.27;6.40;;;32.00;99.90;;;;;;5042177;28;20394;-63
2022/11/16 06:17:52;;;;;;;15.95;5.70;;;32.00;99.90;;;;;;5043388;28;20017;-63
2022/11/16 06:20:18;;;;;;;18.73;5.95;;;32.00;99.90;;;;;;5043942;28;20018;-62
2022/11/16 06:22:45;;;;;;;9.00;4.85;;;32.00;99.90;;;;;;5042334;28;20017;-63
2022/11/16 06:25:11;;;;;;;8.68;4.03;;;32.00;99.90;;;;;;5043345;28;20507;-63
2022/11/16 06:27:39;;;;;;;16.50;7.68;;;32.00;99.90;;;;;;5044144;28;20490;-63
2022/11/16 06:30:07;;;;;;;23.00;12.25;;;32.10;99.90;;;;;;5049449;28;20025;-63
2022/11/16 06:32:33;;;;;;;36.33;15.55;;;32.10;99.90;;;;;;5046084;28;20021;-63
2022/11/16 06:35:00;;;;;;;14.88;7.35;;;32.10;99.90;;;;;;5044084;28;20116;-63
2022/11/16 06:37:26;;;;;;;14.32;5.28;;;32.20;99.90;;;;;;5041918;28;20041;-62
2022/11/16 06:39:53;;;;;;;14.15;5.05;;;32.10;99.90;;;;;;5043298;28;20033;-63
2022/11/16 06:42:19;;;;;;;21.48;5.60;;;32.00;99.90;;;;;;5043659;28;20025;-62
2022/11/16 06:44:46;;;;;;;11.80;4.45;;;32.00;99.90;;;;;;5042032;28;20022;-63
2022/11/16 06:47:12;;;;;;;11.40;5.03;;;32.00;99.90;;;;;;5043055;28;20021;-63
2022/11/16 06:49:39;;;;;;;11.63;4.80;;;32.00;99.90;;;;;;5043908;28;20030;-62
2022/11/16 06:52:05;;;;;;;11.05;5.05;;;32.00;99.90;;;;;;5042176;28;20095;-62
2022/11/16 06:54:32;;;;;;;11.30;5.05;;;32.00;99.90;;;;;;5042988;28;20394;-65
2022/11/16 06:56:58;;;;;;;11.38;4.63;;;32.10;99.90;;;;;;5043373;28;20013;-64
2022/11/16 06:59:24;;;;;;;13.50;5.35;;;32.10;99.90;;;;;;5041697;28;20010;-64
2022/11/16 07:01:51;;;;;;;17.85;5.82;;;32.10;99.90;;;;;;5050257;28;20032;-64
2022/11/16 07:04:17;;;;;;;15.30;5.55;;;32.10;99.90;;;;;;5054174;28;20108;-65
2022/11/16 07:06:44;;;;;;;15.25;5.85;;;32.00;99.90;;;;;;5053610;28;20079;-64
2022/11/16 07:09:13;;;;;;;15.43;6.32;;;32.00;99.90;;;;;;5053992;28;20025;-62
2022/11/16 07:11:40;;;;;;;19.33;8.85;;;32.00;99.90;;;;;;5041780;28;20033;-63
2022/11/16 07:14:06;;;;;;;16.65;6.63;;;32.10;99.90;;;;;;5044008;28;20029;-64
2022/11/16 07:16:35;;;;;;;12.80;5.88;;;32.10;99.90;;;;;;5050509;28;20082;-60
2022/11/16 07:19:02;;;;;;;24.10;9.35;;;32.10;99.90;;;;;;5053292;28;20033;-64
2022/11/16 07:21:29;;;;;;;14.80;7.30;;;32.10;99.90;;;;;;5051086;28;20025;-64
2022/11/16 07:23:56;;;;;;;14.00;5.95;;;32.10;99.90;;;;;;5042780;28;20049;-62
2022/11/16 07:26:22;;;;;;;11.20;5.25;;;32.10;99.90;;;;;;5046764;28;20120;-64
2022/11/16 07:28:49;;;;;;;15.02;6.05;;;32.10;99.90;;;;;;5043029;28;20060;-63
2022/11/16 07:31:16;;;;;;;11.60;5.15;;;32.10;99.90;;;;;;5042664;28;20017;-64
2022/11/16 07:33:42;;;;;;;63.55;45.25;;;32.10;99.90;;;;;;5045467;28;20017;-64
2022/11/16 07:36:13;;;;;;;70.07;50.50;;;32.10;99.90;;;;;;5041202;28;20092;-64
2022/11/16 07:38:40;;;;;;;29.20;19.67;;;32.10;99.90;;;;;;5033273;28;20045;-62
2022/11/16 07:41:10;;;;;;;38.25;24.02;;;32.20;99.90;;;;;;5041523;28;20490;-63
2022/11/16 07:43:37;;;;;;;16.10;7.75;;;32.10;99.90;;;;;;5072610;28;20030;-63
2022/11/16 07:46:05;;;;;;;33.60;10.02;;;32.10;99.90;;;;;;5072951;28;20028;-63
2022/11/16 07:48:32;;;;;;;92.32;68.65;;;32.20;99.90;;;;;;5073276;28;20048;-64
2022/11/16 07:51:01;;;;;;;158.00;106.32;;;32.10;99.90;;;;;;5073531;28;20021;-64
2022/11/16 07:53:27;;;;;;;1121.65;802.35;;;32.20;99.90;;;;;;5072875;28;20032;-64
2022/11/16 07:55:54;;;;;;;196.18;135.20;;;32.20;99.90;;;;;;5064599;28;20115;-64
2022/11/16 07:58:21;;;;;;;582.55;474.30;;;32.30;99.90;;;;;;5046670;28;20018;-67
2022/11/16 08:00:48;;;;;;;233.60;158.25;;;32.30;99.90;;;;;;5045142;28;20406;-64
2022/11/16 08:03:15;;;;;;;153.43;103.97;;;32.30;99.90;;;;;;5037014;28;20034;-63
2022/11/16 08:05:43;;;;;;;1082.65;703.45;;;32.30;99.90;;;;;;5036962;28;20052;-65
2022/11/16 08:08:10;;;;;;;160.15;98.07;;;32.30;99.90;;;;;;5036726;28;20087;-64
2022/11/16 08:10:37;;;;;;;213.93;116.78;;;32.20;99.90;;;;;;5036954;28;20033;-65
2022/11/16 08:13:04;;;;;;;198.85;67.00;;;32.20;99.90;;;;;;5036748;28;20022;-64
2022/11/16 08:15:31;;;;;;;145.90;45.60;;;32.20;99.90;;;;;;5036931;28;20033;-64
2022/11/16 08:17:58;;;;;;;161.13;47.88;;;32.20;99.90;;;;;;5037893;28;20021;-65
2022/11/16 08:20:24;;;;;;;77.32;28.38;;;32.20;99.90;;;;;;5037663;28;20026;-65
2022/11/16 08:22:51;;;;;;;83.72;25.00;;;32.20;99.90;;;;;;5036666;28;20018;-66
2022/11/16 08:25:17;;;;;;;108.90;34.10;;;32.20;99.90;;;;;;5041675;28;20091;-65
2022/11/16 08:27:44;;;;;;;78.35;27.92;;;32.20;99.90;;;;;;5037539;28;20033;-63
2022/11/16 08:30:11;;;;;;;61.53;29.38;;;32.20;99.90;;;;;;5037245;28;20450;-69
2022/11/16 08:32:40;;;;;;;45.67;16.10;;;32.20;99.90;;;;;;5036794;28;20112;-62
2022/11/16 08:35:06;;;;;;;71.50;16.95;;;32.20;99.90;;;;;;5037272;28;20039;-65
2022/11/16 08:37:33;;;;;;;93.30;61.83;;;32.20;99.90;;;;;;5036579;28;20049;-64
2022/11/16 08:40:01;;;;;;;14.93;8.80;;;32.20;99.90;;;;;;5037070;28;20022;-66
2022/11/16 08:42:27;;;;;;;41.88;26.02;;;32.10;99.90;;;;;;5036987;28;20041;-67
2022/11/16 08:44:54;;;;;;;25.75;14.65;;;32.10;99.90;;;;;;5036949;28;20105;-66
2022/11/16 08:47:20;;;;;;;50.83;31.58;;;32.10;99.90;;;;;;5040124;28;20025;-65
2022/11/16 08:49:47;;;;;;;60.97;38.20;;;32.10;99.90;;;;;;5051170;28;20017;-66
2022/11/16 08:52:13;;;;;;;51.38;27.77;;;32.10;99.90;;;;;;5051066;28;20017;-66
2022/11/16 08:54:40;;;;;;;56.38;37.90;;;32.10;99.90;;;;;;5050589;28;20033;-64
2022/11/16 08:57:07;;;;;;;53.97;37.63;;;32.10;99.90;;;;;;5051286;28;20027;-66
2022/11/16 08:59:33;;;;;;;34.13;23.30;;;32.10;99.90;;;;;;5050774;28;20035;-68
2022/11/16 09:02:00;;;;;;;33.50;19.60;;;32.10;99.90;;;;;;5050503;28;20052;-63
2022/11/16 09:04:26;;;;;;;20.65;12.23;;;32.10;99.90;;;;;;5045793;28;20456;-65
2022/11/16 09:06:53;;;;;;;75.07;49.70;;;32.10;99.90;;;;;;5044295;28;20458;-66
2022/11/16 09:09:20;;;;;;;25.65;12.57;;;32.10;99.90;;;;;;5043980;28;20025;-67
2022/11/16 09:11:46;;;;;;;26.40;15.48;;;32.10;99.90;;;;;;5050605;28;20104;-67
2022/11/16 09:14:13;;;;;;;22.55;9.13;;;32.10;99.90;;;;;;5046890;28;20033;-66
2022/11/16 09:16:39;;;;;;;17.55;9.30;;;32.00;99.90;;;;;;5044086;28;20022;-66
2022/11/16 09:19:06;;;;;;;17.50;7.82;;;32.00;99.90;;;;;;5047109;28;20021;-66
2022/11/16 09:21:35;;;;;;;26.63;13.18;;;32.00;99.90;;;;;;5055493;28;20478;-67
2022/11/16 09:24:01;;;;;;;23.15;11.80;;;32.00;99.90;;;;;;5048860;28;20014;-67
2022/11/16 09:26:28;;;;;;;148.63;103.78;;;32.00;99.90;;;;;;5035735;28;20076;-68
2022/11/16 09:28:57;;;;;;;109.40;73.68;;;32.00;99.90;;;;;;5035537;28;20021;-66
2022/11/16 09:31:27;;;;;;;31.67;16.67;;;32.00;99.90;;;;;;5035215;28;20547;-66
2022/11/16 09:33:57;;;;;;;27.10;13.88;;;31.90;99.90;;;;;;5035161;28;20026;-66
2022/11/16 09:36:24;;;;;;;43.25;22.95;;;32.00;99.90;;;;;;5038778;28;20111;-68
2022/11/16 09:38:53;;;;;;;44.03;24.73;;;31.90;99.90;;;;;;5035112;28;20030;-68
2022/11/16 09:41:34;;;;;;;27.98;15.13;;;31.90;99.90;;;;;;5035208;28;20390;-67
2022/11/16 09:44:04;;;;;;;25.00;12.60;;;31.90;99.90;;;;;;5049843;28;20374;-67
2022/11/16 09:46:36;;;;;;;28.73;16.55;;;31.90;99.90;;;;;;5054928;28;20017;-67
2022/11/16 09:49:14;;;;;;;326.23;35.50;;;31.90;99.90;;;;;;5054805;28;20112;-66
2022/11/16 09:51:44;;;;;;;53.95;15.80;;;31.90;99.90;;;;;;5054917;28;20021;-66
2022/11/16 09:54:17;;;;;;;185.75;23.95;;;31.80;99.90;;;;;;5054974;28;20017;-67
2022/11/16 09:56:46;;;;;;;202.65;31.52;;;31.80;99.90;;;;;;5054663;28;20032;-67
2022/11/16 09:59:22;;;;;;;221.63;38.92;;;31.80;99.90;;;;;;5034981;28;20088;-67
2022/11/16 10:01:54;;;;;;;122.30;28.67;;;31.80;99.90;;;;;;5037236;28;20030;-61
2022/11/16 10:04:28;;;;;;;169.15;32.42;;;31.70;99.90;;;;;;5042343;28;20029;-66
2022/11/16 10:06:54;;;;;;;159.35;33.80;;;31.60;99.90;;;;;;5034747;28;20032;-68
2022/11/16 10:09:21;;;;;;;47.80;21.95;;;31.60;99.90;;;;;;5034460;28;20026;-68
2022/11/16 10:11:53;;;;;;;47.53;18.73;;;31.60;99.90;;;;;;5034398;28;20036;-65
2022/11/16 10:14:21;;;;;;;;;;;31.60;99.90;;;;;;5034652;28;20105;-65
2022/11/16 10:16:56;;;;;;;81.10;43.25;;;31.60;99.90;;;;;;5034018;28;19904;-65
2022/11/16 10:19:47;;;;;;;68.63;36.33;;;31.50;99.90;;;;;;5034269;28;20025;-67
2022/11/16 10:22:19;;;;;;;75.85;41.47;;;31.50;99.90;;;;;;5022945;28;20034;-68
2022/11/16 10:24:52;;;;;;;52.90;29.52;;;31.50;99.90;;;;;;5033974;28;20030;-67
2022/11/16 10:27:19;;;;;;;46.55;27.38;;;31.50;99.90;;;;;;5033935;28;20053;-68
2022/11/16 10:29:51;;;;;;;44.45;24.00;;;31.50;99.90;;;;;;5034000;28;20486;-66
2022/11/16 10:32:20;;;;;;;47.88;23.63;;;31.50;99.90;;;;;;5033911;28;20099;-66
2022/11/16 10:34:49;;;;;;;49.75;26.70;;;31.50;99.90;;;;;;5033782;28;20041;-64
2022/11/16 10:37:15;;;;;;;63.58;28.30;;;31.40;99.90;;;;;;5033777;28;20482;-65
2022/11/16 10:39:42;;;;;;;43.60;22.95;;;31.40;99.90;;;;;;5046036;28;20025;-63
2022/11/16 10:42:13;;;;;;;154.57;114.88;;;31.30;99.90;;;;;;5053050;28;20104;-64
2022/11/16 10:44:43;;;;;;;43.55;23.33;;;31.20;99.90;;;;;;5053806;28;20029;-66
2022/11/16 10:47:22;;;;;;;109.53;71.25;;;31.10;99.90;;;;;;5053698;28;20444;-63
2022/11/16 10:50:13;;;;;;;41.95;23.77;;;31.10;99.90;;;;;;5053932;28;20104;-63
2022/11/16 10:52:40;;;;;;;38.65;22.58;;;31.00;99.90;;;;;;5053741;28;20120;-63
2022/11/16 10:55:06;;;;;;;50.42;29.55;;;30.90;99.90;;;;;;5047803;28;20033;-63
2022/11/16 10:57:59;;;;;;;57.40;43.13;;;30.80;99.90;;;;;;5047296;28;20491;-61
2022/11/16 11:00:31;;;;;;;110.72;83.13;;;30.80;99.90;;;;;;5053072;28;20064;-64
2022/11/16 11:02:58;;;;;;;102.35;67.70;;;30.80;99.90;;;;;;5046659;28;20053;-62
2022/11/16 11:05:25;;;;;;;142.18;110.60;;;30.70;99.90;;;;;;5041665;28;20064;-63
2022/11/16 11:08:03;;;;;;;108.47;78.47;;;30.70;99.90;;;;;;5049737;28;20096;-64
2022/11/16 11:10:36;;;;;;;111.88;81.30;;;30.70;99.90;;;;;;5051295;28;20024;-62
2022/11/16 11:13:08;;;;;;;72.53;48.08;;;30.70;99.90;;;;;;5042839;28;20031;-62
2022/11/16 11:15:35;;;;;;;62.83;40.28;;;30.70;99.90;;;;;;5042122;28;20286;-63
2022/11/16 11:18:06;;;;;;;57.15;30.10;;;30.70;99.90;;;;;;5040762;28;20028;-62
2022/11/16 11:20:33;;;;;;;46.88;29.38;;;30.50;99.90;;;;;;5041770;28;20075;-63
2022/11/16 11:23:20;;;;;;;51.80;35.55;;;30.40;99.90;;;;;;5041975;28;20017;-62
2022/11/16 11:25:49;;;;;;;51.38;32.25;;;30.40;99.90;;;;;;5047014;28;20032;-62
2022/11/16 11:28:21;;;;;;;51.10;29.15;;;30.40;99.90;;;;;;5044219;28;20025;-62
2022/11/16 11:30:51;;;;;;;108.10;71.50;;;30.40;99.90;;;;;;5040816;28;20100;-62
2022/11/16 11:33:22;;;;;;;63.92;32.75;;;30.40;99.90;;;;;;5042282;28;20081;-62
2022/11/16 11:36:03;;;;;;;60.60;32.53;;;30.40;99.90;;;;;;5042942;28;20052;-66
2022/11/16 11:38:30;;;;;;;77.47;49.22;;;30.40;99.90;;;;;;5041980;28;20021;-59
2022/11/16 11:41:00;;;;;;;59.03;38.30;;;30.40;99.90;;;;;;5041981;28;20028;-59
2022/11/16 11:43:28;;;;;;;39.47;24.08;;;30.40;99.90;;;;;;5043746;28;20021;-62
2022/11/16 11:46:02;;;;;;;71.07;41.13;;;30.40;99.90;;;;;;5042443;28;20109;-61
2022/11/16 11:48:31;;;;;;;48.67;30.85;;;30.40;99.90;;;;;;5038517;28;20025;-64
2022/11/16 11:54:05;;;;;;;41.08;23.58;;;30.40;99.90;;;;;;5012566;28;20057;-66
2022/11/16 11:56:33;;;;;;;42.42;22.27;;;30.20;99.90;;;;;;5013549;28;20478;-65
2022/11/16 11:59:02;;;;;;;33.75;21.10;;;30.10;99.90;;;;;;5013279;28;20041;-64
2022/11/16 12:01:33;;;;;;;19.70;11.85;;;30.00;99.90;;;;;;5013793;28;20060;-64
2022/11/16 12:04:12;;;;;;;23.23;13.88;;;29.80;99.90;;;;;;5013337;28;20471;-67
2022/11/16 12:06:41;;;;;;;30.90;15.23;;;29.70;99.90;;;;;;5013635;28;20031;-66
2022/11/16 12:09:14;;;;;;;34.17;17.38;;;29.70;99.90;;;;;;5013441;28;20613;-67
2022/11/16 12:11:58;;;;;;;36.35;18.88;;;29.60;99.90;;;;;;5004738;28;20038;-64
2022/11/16 12:14:52;;;;;;;34.33;18.52;;;29.50;99.90;;;;;;5012983;28;20030;-59
2022/11/16 12:17:24;;;;;;;48.90;14.18;;;29.50;99.90;;;;;;5009583;28;20038;-64
2022/11/16 12:20:00;;;;;;;27.90;12.95;;;29.50;99.90;;;;;;5013513;28;20018;-65
2022/11/16 12:22:31;;;;;;;25.95;14.27;;;29.50;99.90;;;;;;5013232;28;20120;-67
2022/11/16 12:25:04;;;;;;;25.48;10.60;;;29.30;99.90;;;;;;5013387;28;20550;-66
2022/11/16 12:27:33;;;;;;;18.15;9.00;;;29.10;99.90;;;;;;5013531;28;20093;-64
2022/11/16 12:30:08;;;;;;;14.15;8.25;;;28.90;99.90;;;;;;5013258;28;20030;-63
2022/11/16 12:32:36;;;;;;;16.48;9.27;;;28.90;99.90;;;;;;5012928;28;20372;-63
2022/11/16 12:35:15;;;;;;;14.63;8.07;;;28.80;99.90;;;;;;5012990;28;20058;-63
2022/11/16 12:38:04;;;;;;;16.70;8.05;;;28.80;99.90;;;;;;5012904;28;20076;-66
2022/11/16 12:40:38;;;;;;;16.52;8.75;;;28.80;99.90;;;;;;5000111;28;20037;-65
2022/11/16 12:43:06;;;;;;;13.60;8.32;;;28.80;99.90;;;;;;5016848;28;20494;-64
2022/11/16 12:45:43;;;;;;;18.05;9.25;;;28.80;99.90;;;;;;5016928;28;20463;-65
2022/11/16 12:48:19;;;;;;;18.25;9.80;;;28.80;99.90;;;;;;5014487;28;20030;-67
2022/11/16 12:50:48;;;;;;;24.17;11.70;;;28.70;99.90;;;;;;5007215;28;20426;-67
2022/11/16 12:53:26;;;;;;;32.55;19.33;;;28.70;99.90;;;;;;5000279;28;20046;-68
2022/11/16 12:55:55;;;;;;;33.65;22.27;;;28.60;99.90;;;;;;5001680;28;20429;-67
2022/11/16 12:58:44;;;;;;;49.17;42.65;;;28.60;99.90;;;;;;5010592;28;20022;-66
2022/11/16 13:01:24;;;;;;;26.27;15.55;;;28.70;99.90;;;;;;5010151;28;20169;-72
2022/11/16 13:03:56;;;;;;;30.80;21.42;;;28.60;99.90;;;;;;4996864;28;20021;-67
2022/11/16 13:06:30;;;;;;;26.52;12.48;;;28.60;99.90;;;;;;5009286;28;20490;-66
2022/11/16 13:08:59;;;;;;;20.67;11.82;;;28.60;99.90;;;;;;5012312;28;20042;-67
2022/11/16 13:11:33;;;;;;;33.42;20.30;;;28.50;99.90;;;;;;5009502;28;20034;-68
2022/11/16 13:14:04;;;;;;;18.20;10.10;;;28.60;99.90;;;;;;5004719;28;20050;-67
2022/11/16 13:16:31;;;;;;;205.03;121.53;;;28.50;99.90;;;;;;5005862;28;20364;-67
2022/11/16 13:18:58;;;;;;;551.88;251.95;;;28.40;99.90;;;;;;5006734;28;20145;-67
2022/11/16 13:21:30;;;;;;;53.22;28.58;;;28.50;99.90;;;;;;5006931;28;20053;-68
2022/11/16 13:24:15;;;;;;;12.77;7.85;;;28.50;99.90;;;;;;5006998;28;20027;-68
2022/11/16 13:27:04;;;;;;;18.75;10.70;;;28.60;99.90;;;;;;5007287;28;20097;-66
2022/11/16 13:29:39;;;;;;;23.52;11.35;;;28.60;99.90;;;;;;4998750;28;20424;-67